createdAt,value
2022-08-26T00:04:35.899Z,21.9
2022-08-26T00:14:38.385Z,21.6
2022-08-26T00:34:42.333Z,21.5
2022-08-26T00:54:47.148Z,21
2022-08-26T01:04:49.421Z,20.9
2022-08-26T01:14:51.469Z,20.8
2022-08-26T01:24:54.013Z,21
2022-08-26T01:34:56.037Z,20.9
2022-08-26T01:44:58.025Z,20.9
2022-08-26T01:55:00.401Z,20.6
2022-08-26T02:05:02.590Z,20.6
2022-08-26T02:15:05.639Z,20.7
2022-08-26T02:25:07.348Z,20.2
2022-08-26T02:35:09.020Z,20.3
2022-08-26T02:45:11.593Z,20
2022-08-26T02:55:13.631Z,19.9
2022-08-26T03:05:15.800Z,19.9
2022-08-26T03:15:18.362Z,19.8
2022-08-26T03:25:19.718Z,19.6
2022-08-26T03:35:21.906Z,19.5
2022-08-26T03:45:23.471Z,19.4
2022-08-26T03:55:25.829Z,18.8
2022-08-26T04:05:28.310Z,19
2022-08-26T04:15:29.851Z,18.9
2022-08-26T04:25:31.690Z,18.9
2022-08-26T04:35:34.327Z,18.8
2022-08-26T04:45:36.009Z,18.9
2022-08-26T04:55:48.478Z,18.9
2022-08-26T05:05:50.859Z,18.9
2022-08-26T05:15:52.853Z,19
2022-08-26T05:25:58.513Z,19.2
2022-08-26T05:35:56.825Z,19.4
2022-08-26T05:45:59.227Z,19.6
2022-08-26T05:56:01.051Z,19.7
2022-08-26T06:06:02.741Z,19.8
2022-08-26T06:16:04.816Z,20
2022-08-26T06:36:09.762Z,20.1
2022-08-26T06:46:12.038Z,20.3
2022-08-26T06:56:14.099Z,20.5
2022-08-26T07:26:20.878Z,20.9
2022-08-26T07:36:22.640Z,20.9
2022-08-26T07:46:27.017Z,21
2022-08-26T07:56:26.982Z,21.3
2022-08-26T08:16:31.551Z,21
2022-08-26T08:26:34.174Z,21.2
2022-08-26T08:46:38.877Z,21.5
2022-08-26T08:56:41.129Z,21.5
2022-08-26T09:06:43.610Z,21.6
2022-08-26T09:26:47.603Z,21.6
2022-08-26T09:36:49.893Z,21.6
2022-08-26T09:46:52.330Z,21.4
2022-08-26T09:56:54.504Z,21.7
2022-08-26T10:06:56.319Z,21.8
2022-08-26T10:16:58.481Z,22.1
2022-08-26T10:37:15.155Z,22.3
2022-08-26T10:47:03.746Z,22.5
2022-08-26T10:57:05.661Z,22.5
2022-08-26T11:07:07.814Z,22.4
2022-08-26T11:17:09.582Z,22.5
2022-08-26T11:27:12.227Z,22.7
2022-08-26T11:37:14.734Z,23.1
2022-08-26T11:47:16.605Z,22.9
2022-08-26T11:57:19.190Z,22.9
2022-08-26T12:07:23.933Z,22.9
2022-08-26T12:17:23.611Z,23.4
2022-08-26T12:27:26.197Z,23.6
2022-08-26T12:37:28.780Z,23.4
2022-08-26T12:47:32.790Z,23.3
2022-08-26T12:57:33.791Z,23.6
2022-08-26T13:07:36.211Z,23.4
2022-08-26T13:17:38.531Z,23.5
2022-08-26T13:47:45.796Z,23.6
2022-08-26T13:57:47.871Z,23.7
2022-08-26T14:07:50.355Z,23.6
2022-08-26T14:17:52.973Z,23.3
2022-08-26T14:27:55.343Z,23.3
2022-08-26T14:37:57.292Z,23.2
2022-08-26T14:58:01.449Z,22.8
2022-08-26T15:08:03.411Z,22.9
2022-08-26T15:18:05.796Z,22.7
2022-08-26T15:28:08.240Z,22.7
2022-08-26T15:48:13.015Z,22.4
2022-08-26T15:58:14.537Z,22
2022-08-26T16:38:23.694Z,21.5
2022-08-26T17:08:30.172Z,21.6
2022-08-26T17:18:31.891Z,21.7
2022-08-26T17:28:34.057Z,21.6
2022-08-26T17:38:36.031Z,21.4
2022-08-26T18:18:44.857Z,21.1
2022-08-26T18:28:46.853Z,21.2
2022-08-26T18:38:50.352Z,21.2
2022-08-26T18:48:51.402Z,21.1
2022-08-26T19:29:00.406Z,20.4
2022-08-26T19:39:02.446Z,20.3
2022-08-26T19:49:04.560Z,20.3
2022-08-26T19:59:07.175Z,20.3
2022-08-26T20:39:15.534Z,19.6
2022-08-26T20:49:17.989Z,19.4
2022-08-26T21:09:22.562Z,18.9
2022-08-26T21:19:24.993Z,19.1
2022-08-26T21:29:27.198Z,18.7
2022-08-26T21:59:33.018Z,18.1
2022-08-26T22:19:43.359Z,17.8
2022-08-26T22:29:39.888Z,17.6
2022-08-26T22:39:42.530Z,17.7
2022-08-26T22:59:46.065Z,17.6
2022-08-26T23:09:48.479Z,17.5
2022-08-26T23:19:50.377Z,17.6
2022-08-26T23:29:52.489Z,17.3
2022-08-26T23:39:54.660Z,17.5
2022-08-26T23:49:57.127Z,17.5
